• Join FlightAware (Why Join?)
  • Login
  • US Flag 
10:16AM EDT


 

Airport Tracker/Info


-or-


 

Live Flight TrackerFlight Track Log ✈ N658FE ✈ 02-May-2013 ✈ KOAK - KSEA

Flight Track Log - Related Links

Times and Time Zones

All times are in EDT time to prevent confusion due to time zone crossing. See the N658FE flight status page for this flight to view local times or setup timezone preferences in your user account.

Time Position Orientation Groundspeed Altitude Reporting Facility
EDT Latitude Longitude Course Direction KTS MPH feet Rate Location/Type
05:04PM 37.7400 -122.2750 303° West 1,800  Level FlightAware
05:04PM 37.7630 -122.3090 311° West 3,200 240 Climbing FlightAware
05:05PM 37.7780 -122.3190 332° Northwest 4,300 240 Climbing FlightAware
05:05PM 37.7870 -122.3200 355° North 4,900 240 Climbing FlightAware
05:05PM 37.8270 -122.3070 14° North 7,500 240 Climbing FlightAware
05:06PM 37.8590 -122.2910 22° Northeast 9,500 180 Climbing FlightAware
05:06PM 37.9180 -122.2570 24° Northeast 11,500 180 Climbing FlightAware
05:07PM 37.9820 -122.2220 23° Northeast 13,600 120 Climbing FlightAware
05:07PM 38.0100 -122.2100 19° North 14,700 120 Climbing FlightAware
05:08PM 38.0680 -122.2070 North 16,800 120 Climbing FlightAware
05:09PM 38.1840 -122.2080 360° North 20,500 60 Climbing FlightAware
05:10PM 38.2780 -122.2110 359° North 23,200  Climbing FlightAware
05:10PM 38.3700 -122.2160 358° North 25,300  Climbing FlightAware
05:11PM 38.4600 -122.2200 358° North 27,200 -60 Climbing FlightAware
05:12PM 38.5490 -122.2240 358° North 28,800 -60 Climbing FlightAware
05:13PM 38.6340 -122.2280 358° North 31,000 -120 Climbing FlightAware
05:13PM 38.7210 -122.2330 357° North 33,000 -120 Climbing FlightAware
05:14PM 38.7950 -122.2360 358° North 34,300 -180 Climbing FlightAware
05:15PM 38.9010 -122.2410 358° North 35,700 -180 Climbing FlightAware
05:15PM 38.9830 -122.2440 358° North 36,900 -240 Climbing FlightAware
05:16PM 39.0660 -122.2480 358° North 37,900 -240 Climbing FlightAware
05:17PM 39.1520 -122.2520 358° North 38,000 -240 Climbing FlightAware
05:17PM 39.2330 -122.2560 358° North 38,000 -300 Level FlightAware
05:18PM 39.3220 -122.2610 358° North 38,000 -300 Level FlightAware
05:19PM 39.4040 -122.2640 358° North 38,000 -300 Level FlightAware
05:20PM 39.4880 -122.2680 358° North 38,000 -300 Level FlightAware
05:20PM 39.5750 -122.2720 358° North 38,000 -300 Level FlightAware
05:21PM 39.6550 -122.2760 358° North 38,000 -300 Level FlightAware
05:22PM 39.7480 -122.2800 358° North 38,000 -300 Level FlightAware
05:22PM 39.8250 -122.2840 358° North 38,000 -300 Level FlightAware
05:23PM 39.9050 -122.2880 358° North 38,000 -300 Level FlightAware
05:24PM 39.9920 -122.2920 358° North 38,000 -300 Level FlightAware
05:24PM 40.0710 -122.2960 358° North 38,000 -300 Level FlightAware
05:25PM 40.1620 -122.3000 358° North 38,000 -300 Level FlightAware
05:26PM 40.2400 -122.3040 358° North 38,000 -300 Level FlightAware
05:27PM 40.3450 -122.3090 358° North 38,000 -300 Level FlightAware
05:28PM 40.4320 -122.3130 358° North 38,000 -300 Level FlightAware
05:28PM 40.5100 -122.3170 358° North 38,000 -300 Level FlightAware
05:29PM 40.5890 -122.3200 358° North 38,000 -300 Level FlightAware
05:30PM 40.6720 -122.3250 357° North 38,000 -360 Level FlightAware
05:30PM 40.7500 -122.3280 358° North 38,000 -360 Level FlightAware
05:31PM 40.8350 -122.3330 357° North 38,000 -360 Level FlightAware
05:32PM 40.9140 -122.3360 358° North 38,000 -360 Level FlightAware
05:32PM 41.0000 -122.3410 357° North 38,000 -360 Level FlightAware
05:33PM 41.0750 -122.3440 358° North 38,000 -360 Level FlightAware
05:34PM 41.1540 -122.3480 358° North 38,000 -360 Level FlightAware
05:35PM 41.2400 -122.3520 358° North 38,000 -360 Level FlightAware
05:35PM 41.3180 -122.3560 358° North 38,000 -360 Level FlightAware
05:36PM 41.3950 -122.3600 358° North 38,000 -360 Level FlightAware
05:37PM 41.4800 -122.3640 358° North 38,000 -360 Level FlightAware
05:37PM 41.5560 -122.3680 358° North 38,000 -360 Level FlightAware
05:38PM 41.6420 -122.3720 358° North 38,000 -420 Level FlightAware
05:39PM 41.7240 -122.3760 358° North 38,000 -420 Level FlightAware
05:40PM 41.8270 -122.3820 358° North 38,000 -420 Level FlightAware
05:42PM 42.0570 -122.3930 358° North 38,000 -420 Level FlightAware
05:42PM 42.1470 -122.3980 358° North 38,000 -420 Level FlightAware
05:43PM 42.2320 -122.4020 358° North 38,000 -420 Level FlightAware
05:44PM 42.2980 -122.4050 358° North 38,000 -480 Level FlightAware
05:45PM 42.4020 -122.4110 358° North 38,000 -480 Level FlightAware
05:45PM 42.4870 -122.4150 358° North 38,000 -480 Level FlightAware
05:46PM 42.5530 -122.4180 358° North 38,000 -480 Level FlightAware
05:47PM 42.6450 -122.4230 358° North 38,000 -480 Level FlightAware
05:50PM 43.0110 -122.4420 358° North 38,000 -480 Level FlightAware
05:54PM 43.5010 -122.4680 358° North 38,000 -540 Level FlightAware
05:54PM 43.5690 -122.4710 358° North 38,000 -660 Level FlightAware
05:55PM 43.6380 -122.4750 358° North 38,000 -660 Level FlightAware
05:56PM 43.7220 -122.4800 358° North 38,000 -660 Level FlightAware
05:56PM 43.8190 -122.4850 358° North 38,000 -720 Level FlightAware
05:57PM 43.8990 -122.4890 358° North 38,000 -720 Level FlightAware
05:58PM 43.9850 -122.4940 358° North 38,000 -720 Level FlightAware
05:59PM 44.0640 -122.4980 358° North 38,000 -780 Level FlightAware
05:59PM 44.1440 -122.5020 358° North 38,000 -780 Level FlightAware
06:00PM 44.2350 -122.5070 358° North 38,000 -840 Level FlightAware
06:01PM 44.3150 -122.5120 357° North 38,000 -840 Level FlightAware
06:01PM 44.3950 -122.5160 358° North 38,000 -900 Level FlightAware
06:02PM 44.4820 -122.5210 358° North 38,000 -900 Level FlightAware
06:03PM 44.5600 -122.5250 358° North 38,000 -960 Level FlightAware
06:03PM 44.6360 -122.5290 358° North 38,000 -1,020 Level FlightAware
06:04PM 44.7290 -122.5340 358° North 38,000 -1,020 Level FlightAware
06:05PM 44.8080 -122.5390 357° North 38,000 -1,080 Level FlightAware
06:06PM 44.8950 -122.5430 358° North 38,000 -1,140 Level FlightAware
06:06PM 44.9740 -122.5480 357° North 38,000 -1,200 Level FlightAware
06:07PM 45.0560 -122.5520 358° North 38,000 -1,260 Level FlightAware
06:08PM 45.1390 -122.5570 358° North 38,000 -1,380 Level FlightAware
06:08PM 45.2250 -122.5620 358° North 38,000 -1,440 Level FlightAware
06:09PM 45.3110 -122.5670 358° North 38,000 -1,560 Level FlightAware
06:10PM 45.3930 -122.5710 358° North 38,000 -1,680 Level FlightAware
06:10PM 45.4730 -122.5760 357° North 38,000 -1,800 Level FlightAware
06:11PM 45.5330 -122.5790 358° North 38,000 -1,980 Level FlightAware
06:12PM 45.6330 -122.5850 358° North 37,100 -2,100 Descending FlightAware
06:13PM 45.7170 -122.5900 358° North 35,700 -2,280 Descending FlightAware
06:13PM 45.7960 -122.6020 354° North 33,400 -2,280 Descending FlightAware
06:14PM 45.8660 -122.6200 350° North 31,000 -2,160 Descending FlightAware
06:17PM 46.2220 -122.7030 351° North 24,000 -1,860 Descending FlightAware
06:18PM 46.3214 -122.7192 351° North 391 450 23,200 -1,380 Descending Seattle Center
06:19PM 46.4261 -122.7156 North 379 436 21,200 -2,040 Descending Seattle Center
06:20PM 46.5306 -122.7142 North 376 433 19,100 -1,980 Descending Seattle Center
06:21PM 46.6539 -122.7097 North 368 423 17,200 -1,680 Descending Seattle Center
06:22PM 46.6983 -122.7072 North 360 414 16,600 -1,500 Descending Seattle Center
06:22PM 46.7497 -122.7042 North 345 397 15,700 -1,800 Descending Seattle Center
06:23PM 46.8389 -122.6789 11° North 337 388 13,900 -1,920 Descending Seattle Center
06:24PM 46.9022 -122.5889 44° Northeast 320 368 11,900 -1,920 Descending Seattle Center
06:25PM 46.9589 -122.5086 44° Northeast 290 334 10,000 -1,680 Descending Seattle Center
06:26PM 47.0167 -122.4386 40° Northeast 262 302 8,500 -1,440 Descending Seattle Center
06:27PM 47.0806 -122.3842 30° Northeast 240 276 7,100 -1,260 Descending Seattle Center
06:28PM 47.1389 -122.3425 26° Northeast 232 267 6,000 -1,020 Descending Seattle Center
06:29PM 47.1994 -122.3189 15° North 229 264 5,100 -1,080 Descending Seattle Center
06:30PM 47.2603 -122.3217 358° North 217 250 3,900 -1,140 Descending Seattle Center
06:31PM 47.3108 -122.3200 North 182 209 2,900 -1,020 Descending Seattle Center
06:32PM 47.3622 -122.3211 359° North 164 189 1,900 -900 Descending Seattle Center
06:33PM 47.4039 -122.3178 North 134 154 1,100 -720 Descending Seattle Center
06:34PM 47.4339 -122.3186 359° North 120 138 500 -420 Descending Seattle Center
06:35PM 47.4689 -122.3183 360° North 119 137 300 -240 Descending Seattle Center
06:37PM 47.4499 -122.3118 121° Southeast  Level Estimated